sensor_id;sensor_type;location;lat;lon;timestamp;P1;durP1;ratioP1;P2;durP2;ratioP2
11663;SDS011;72375;59.302;18.204;2024-03-07T00:00:01;5.93;;;3.17;;
11663;SDS011;72375;59.302;18.204;2024-03-07T00:02:50;4.93;;;3.27;;
11663;SDS011;72375;59.302;18.204;2024-03-07T00:05:36;5.70;;;3.50;;
11663;SDS011;72375;59.302;18.204;2024-03-07T00:08:22;5.93;;;3.57;;
11663;SDS011;72375;59.302;18.204;2024-03-07T00:11:09;6.57;;;3.43;;
11663;SDS011;72375;59.302;18.204;2024-03-07T00:13:54;3.97;;;2.93;;
11663;SDS011;72375;59.302;18.204;2024-03-07T00:16:41;5.17;;;3.20;;
11663;SDS011;72375;59.302;18.204;2024-03-07T00:19:27;5.97;;;3.40;;
11663;SDS011;72375;59.302;18.204;2024-03-07T00:22:13;6.47;;;3.23;;
11663;SDS011;72375;59.302;18.204;2024-03-07T00:24:59;4.73;;;3.47;;
11663;SDS011;72375;59.302;18.204;2024-03-07T00:27:45;4.17;;;3.03;;
11663;SDS011;72375;59.302;18.204;2024-03-07T00:30:30;4.93;;;3.50;;
11663;SDS011;72375;59.302;18.204;2024-03-07T00:33:19;4.33;;;3.13;;
11663;SDS011;72375;59.302;18.204;2024-03-07T00:36:05;3.80;;;2.73;;
11663;SDS011;72375;59.302;18.204;2024-03-07T00:38:51;4.63;;;3.13;;
11663;SDS011;72375;59.302;18.204;2024-03-07T00:41:37;5.97;;;3.30;;
11663;SDS011;72375;59.302;18.204;2024-03-07T00:44:23;6.20;;;2.83;;
11663;SDS011;72375;59.302;18.204;2024-03-07T00:47:10;5.07;;;3.23;;
11663;SDS011;72375;59.302;18.204;2024-03-07T00:49:57;5.33;;;3.43;;
11663;SDS011;72375;59.302;18.204;2024-03-07T00:52:42;5.33;;;3.00;;
11663;SDS011;72375;59.302;18.204;2024-03-07T00:55:28;6.10;;;3.27;;
11663;SDS011;72375;59.302;18.204;2024-03-07T00:58:14;6.27;;;3.73;;
11663;SDS011;72375;59.302;18.204;2024-03-07T01:01:00;5.07;;;3.30;;
11663;SDS011;72375;59.302;18.204;2024-03-07T01:03:46;4.70;;;3.37;;
11663;SDS011;72375;59.302;18.204;2024-03-07T01:06:33;5.60;;;3.23;;
11663;SDS011;72375;59.302;18.204;2024-03-07T01:09:20;5.23;;;3.40;;
11663;SDS011;72375;59.302;18.204;2024-03-07T01:12:07;4.10;;;2.80;;
11663;SDS011;72375;59.302;18.204;2024-03-07T01:14:54;6.53;;;3.47;;
11663;SDS011;72375;59.302;18.204;2024-03-07T01:17:41;6.53;;;3.70;;
11663;SDS011;72375;59.302;18.204;2024-03-07T01:20:28;4.77;;;3.47;;
11663;SDS011;72375;59.302;18.204;2024-03-07T01:23:15;5.97;;;3.40;;
11663;SDS011;72375;59.302;18.204;2024-03-07T01:26:01;6.20;;;3.70;;
11663;SDS011;72375;59.302;18.204;2024-03-07T01:28:47;6.67;;;3.73;;
11663;SDS011;72375;59.302;18.204;2024-03-07T01:31:33;6.10;;;3.83;;
11663;SDS011;72375;59.302;18.204;2024-03-07T01:34:19;7.20;;;4.10;;
11663;SDS011;72375;59.302;18.204;2024-03-07T01:37:04;6.30;;;3.97;;
11663;SDS011;72375;59.302;18.204;2024-03-07T01:39:53;9.80;;;4.20;;
11663;SDS011;72375;59.302;18.204;2024-03-07T01:42:38;8.23;;;4.07;;
11663;SDS011;72375;59.302;18.204;2024-03-07T01:45:24;6.40;;;4.17;;
11663;SDS011;72375;59.302;18.204;2024-03-07T01:48:10;8.33;;;4.77;;
11663;SDS011;72375;59.302;18.204;2024-03-07T01:50:58;8.67;;;4.53;;
11663;SDS011;72375;59.302;18.204;2024-03-07T01:53:44;8.87;;;4.27;;
11663;SDS011;72375;59.302;18.204;2024-03-07T01:56:32;8.40;;;4.07;;
11663;SDS011;72375;59.302;18.204;2024-03-07T01:59:17;8.87;;;4.63;;
11663;SDS011;72375;59.302;18.204;2024-03-07T02:02:05;8.03;;;4.10;;
11663;SDS011;72375;59.302;18.204;2024-03-07T02:04:50;8.00;;;4.40;;
11663;SDS011;72375;59.302;18.204;2024-03-07T02:07:36;7.23;;;4.50;;
11663;SDS011;72375;59.302;18.204;2024-03-07T02:10:22;9.07;;;4.47;;
11663;SDS011;72375;59.302;18.204;2024-03-07T02:13:09;11.77;;;5.13;;
11663;SDS011;72375;59.302;18.204;2024-03-07T02:15:55;7.27;;;4.27;;
11663;SDS011;72375;59.302;18.204;2024-03-07T02:18:40;6.83;;;4.03;;
11663;SDS011;72375;59.302;18.204;2024-03-07T02:21:27;9.20;;;4.33;;
11663;SDS011;72375;59.302;18.204;2024-03-07T02:24:13;8.90;;;4.40;;
11663;SDS011;72375;59.302;18.204;2024-03-07T02:26:59;7.93;;;4.67;;
11663;SDS011;72375;59.302;18.204;2024-03-07T02:29:45;8.47;;;4.70;;
11663;SDS011;72375;59.302;18.204;2024-03-07T02:32:31;9.73;;;5.03;;
11663;SDS011;72375;59.302;18.204;2024-03-07T02:35:17;10.40;;;4.80;;
11663;SDS011;72375;59.302;18.204;2024-03-07T02:38:05;8.73;;;4.30;;
11663;SDS011;72375;59.302;18.204;2024-03-07T02:40:51;7.10;;;3.87;;
11663;SDS011;72375;59.302;18.204;2024-03-07T02:43:36;9.43;;;3.97;;
11663;SDS011;72375;59.302;18.204;2024-03-07T02:46:22;7.83;;;4.27;;
11663;SDS011;72375;59.302;18.204;2024-03-07T02:49:08;9.90;;;4.20;;
11663;SDS011;72375;59.302;18.204;2024-03-07T02:51:54;7.70;;;4.07;;
11663;SDS011;72375;59.302;18.204;2024-03-07T02:54:40;8.70;;;3.70;;
11663;SDS011;72375;59.302;18.204;2024-03-07T02:57:26;9.07;;;4.50;;
11663;SDS011;72375;59.302;18.204;2024-03-07T03:00:12;8.47;;;4.07;;
11663;SDS011;72375;59.302;18.204;2024-03-07T03:03:04;5.70;;;3.97;;
11663;SDS011;72375;59.302;18.204;2024-03-07T03:05:50;8.93;;;4.63;;
11663;SDS011;72375;59.302;18.204;2024-03-07T03:08:35;7.37;;;3.90;;
11663;SDS011;72375;59.302;18.204;2024-03-07T03:11:22;9.03;;;4.70;;
11663;SDS011;72375;59.302;18.204;2024-03-07T03:14:09;7.50;;;3.93;;
11663;SDS011;72375;59.302;18.204;2024-03-07T03:16:55;6.07;;;3.77;;
11663;SDS011;72375;59.302;18.204;2024-03-07T03:19:41;8.77;;;4.63;;
11663;SDS011;72375;59.302;18.204;2024-03-07T03:22:26;7.93;;;4.87;;
11663;SDS011;72375;59.302;18.204;2024-03-07T03:25:12;7.10;;;3.87;;
11663;SDS011;72375;59.302;18.204;2024-03-07T03:28:00;8.80;;;4.73;;
11663;SDS011;72375;59.302;18.204;2024-03-07T03:30:48;6.60;;;4.23;;
11663;SDS011;72375;59.302;18.204;2024-03-07T03:33:34;6.43;;;4.27;;
11663;SDS011;72375;59.302;18.204;2024-03-07T03:36:20;9.87;;;4.07;;
11663;SDS011;72375;59.302;18.204;2024-03-07T03:39:05;9.00;;;4.50;;
11663;SDS011;72375;59.302;18.204;2024-03-07T03:41:55;6.47;;;3.73;;
11663;SDS011;72375;59.302;18.204;2024-03-07T03:44:42;8.00;;;4.03;;
11663;SDS011;72375;59.302;18.204;2024-03-07T03:47:27;6.50;;;4.40;;
11663;SDS011;72375;59.302;18.204;2024-03-07T03:50:13;8.17;;;3.80;;
11663;SDS011;72375;59.302;18.204;2024-03-07T03:52:59;7.53;;;4.17;;
11663;SDS011;72375;59.302;18.204;2024-03-07T03:55:47;7.97;;;3.97;;
11663;SDS011;72375;59.302;18.204;2024-03-07T03:58:33;6.10;;;3.73;;
11663;SDS011;72375;59.302;18.204;2024-03-07T04:01:20;8.07;;;3.87;;
11663;SDS011;72375;59.302;18.204;2024-03-07T04:04:07;8.03;;;4.17;;
11663;SDS011;72375;59.302;18.204;2024-03-07T04:06:53;8.77;;;4.73;;
11663;SDS011;72375;59.302;18.204;2024-03-07T04:09:38;7.33;;;3.90;;
11663;SDS011;72375;59.302;18.204;2024-03-07T04:12:24;9.90;;;4.03;;
11663;SDS011;72375;59.302;18.204;2024-03-07T04:15:11;8.43;;;4.53;;
11663;SDS011;72375;59.302;18.204;2024-03-07T04:18:01;9.20;;;4.27;;
11663;SDS011;72375;59.302;18.204;2024-03-07T04:20:47;6.47;;;3.93;;
11663;SDS011;72375;59.302;18.204;2024-03-07T04:23:32;7.20;;;4.33;;
11663;SDS011;72375;59.302;18.204;2024-03-07T04:26:18;7.87;;;4.23;;
11663;SDS011;72375;59.302;18.204;2024-03-07T04:29:04;8.53;;;4.13;;
11663;SDS011;72375;59.302;18.204;2024-03-07T04:31:50;8.67;;;3.93;;
11663;SDS011;72375;59.302;18.204;2024-03-07T04:34:37;7.13;;;4.50;;
11663;SDS011;72375;59.302;18.204;2024-03-07T04:37:23;6.83;;;3.90;;
11663;SDS011;72375;59.302;18.204;2024-03-07T04:40:09;8.47;;;4.10;;
11663;SDS011;72375;59.302;18.204;2024-03-07T04:42:59;9.70;;;4.23;;
11663;SDS011;72375;59.302;18.204;2024-03-07T04:45:45;6.43;;;3.80;;
11663;SDS011;72375;59.302;18.204;2024-03-07T04:48:31;9.30;;;4.00;;
11663;SDS011;72375;59.302;18.204;2024-03-07T04:51:18;7.13;;;3.47;;
11663;SDS011;72375;59.302;18.204;2024-03-07T04:54:04;8.73;;;4.00;;
11663;SDS011;72375;59.302;18.204;2024-03-07T04:56:50;7.33;;;3.80;;
11663;SDS011;72375;59.302;18.204;2024-03-07T04:59:37;11.83;;;4.20;;
11663;SDS011;72375;59.302;18.204;2024-03-07T05:02:22;8.33;;;3.90;;
11663;SDS011;72375;59.302;18.204;2024-03-07T05:05:09;7.27;;;4.10;;
11663;SDS011;72375;59.302;18.204;2024-03-07T05:07:56;7.27;;;3.40;;
11663;SDS011;72375;59.302;18.204;2024-03-07T05:10:41;6.23;;;3.43;;
11663;SDS011;72375;59.302;18.204;2024-03-07T05:13:27;5.93;;;4.00;;
11663;SDS011;72375;59.302;18.204;2024-03-07T05:16:13;9.43;;;3.83;;
11663;SDS011;72375;59.302;18.204;2024-03-07T05:18:59;7.73;;;4.20;;
11663;SDS011;72375;59.302;18.204;2024-03-07T05:21:44;9.47;;;3.43;;
11663;SDS011;72375;59.302;18.204;2024-03-07T05:24:31;8.47;;;3.93;;
11663;SDS011;72375;59.302;18.204;2024-03-07T05:27:17;7.20;;;4.00;;
11663;SDS011;72375;59.302;18.204;2024-03-07T05:30:03;5.50;;;3.33;;
11663;SDS011;72375;59.302;18.204;2024-03-07T05:32:52;5.90;;;3.73;;
11663;SDS011;72375;59.302;18.204;2024-03-07T05:35:38;6.60;;;3.53;;
11663;SDS011;72375;59.302;18.204;2024-03-07T05:38:24;8.07;;;3.50;;
11663;SDS011;72375;59.302;18.204;2024-03-07T05:41:14;5.73;;;3.70;;
11663;SDS011;72375;59.302;18.204;2024-03-07T05:43:59;6.37;;;3.63;;
11663;SDS011;72375;59.302;18.204;2024-03-07T05:46:44;5.47;;;3.33;;
11663;SDS011;72375;59.302;18.204;2024-03-07T05:49:32;6.83;;;2.93;;
11663;SDS011;72375;59.302;18.204;2024-03-07T05:52:18;7.03;;;4.07;;
11663;SDS011;72375;59.302;18.204;2024-03-07T05:55:04;10.63;;;3.03;;
11663;SDS011;72375;59.302;18.204;2024-03-07T05:57:52;5.07;;;2.80;;
11663;SDS011;72375;59.302;18.204;2024-03-07T06:00:37;4.93;;;3.13;;
11663;SDS011;72375;59.302;18.204;2024-03-07T06:03:24;4.63;;;2.77;;
11663;SDS011;72375;59.302;18.204;2024-03-07T06:06:09;4.97;;;3.33;;
11663;SDS011;72375;59.302;18.204;2024-03-07T06:08:56;4.80;;;3.00;;
11663;SDS011;72375;59.302;18.204;2024-03-07T06:11:41;5.10;;;3.03;;
11663;SDS011;72375;59.302;18.204;2024-03-07T06:14:28;5.30;;;3.40;;
11663;SDS011;72375;59.302;18.204;2024-03-07T06:17:15;3.73;;;2.63;;
11663;SDS011;72375;59.302;18.204;2024-03-07T06:20:03;6.07;;;2.60;;
11663;SDS011;72375;59.302;18.204;2024-03-07T06:23:00;5.17;;;2.90;;
11663;SDS011;72375;59.302;18.204;2024-03-07T06:25:48;7.47;;;3.10;;
11663;SDS011;72375;59.302;18.204;2024-03-07T06:28:35;5.83;;;2.53;;
11663;SDS011;72375;59.302;18.204;2024-03-07T06:31:22;6.70;;;2.60;;
11663;SDS011;72375;59.302;18.204;2024-03-07T06:34:08;6.63;;;3.23;;
11663;SDS011;72375;59.302;18.204;2024-03-07T06:36:54;4.77;;;3.00;;
11663;SDS011;72375;59.302;18.204;2024-03-07T06:39:39;6.63;;;3.10;;
11663;SDS011;72375;59.302;18.204;2024-03-07T06:42:25;4.70;;;2.43;;
11663;SDS011;72375;59.302;18.204;2024-03-07T06:45:11;4.53;;;2.50;;
11663;SDS011;72375;59.302;18.204;2024-03-07T06:47:58;3.70;;;2.47;;
11663;SDS011;72375;59.302;18.204;2024-03-07T06:50:44;7.40;;;2.90;;
11663;SDS011;72375;59.302;18.204;2024-03-07T06:53:30;6.00;;;2.80;;
11663;SDS011;72375;59.302;18.204;2024-03-07T06:56:15;6.80;;;3.00;;
11663;SDS011;72375;59.302;18.204;2024-03-07T06:59:01;5.50;;;2.87;;
11663;SDS011;72375;59.302;18.204;2024-03-07T07:01:48;10.07;;;3.10;;
11663;SDS011;72375;59.302;18.204;2024-03-07T07:04:36;8.97;;;2.70;;
11663;SDS011;72375;59.302;18.204;2024-03-07T07:07:26;6.03;;;2.53;;
11663;SDS011;72375;59.302;18.204;2024-03-07T07:10:12;8.63;;;2.50;;
11663;SDS011;72375;59.302;18.204;2024-03-07T07:13:01;4.97;;;2.30;;
11663;SDS011;72375;59.302;18.204;2024-03-07T07:15:48;5.13;;;2.30;;
11663;SDS011;72375;59.302;18.204;2024-03-07T07:18:34;6.33;;;2.90;;
11663;SDS011;72375;59.302;18.204;2024-03-07T07:21:22;3.97;;;2.20;;
11663;SDS011;72375;59.302;18.204;2024-03-07T07:24:07;3.03;;;2.27;;
11663;SDS011;72375;59.302;18.204;2024-03-07T07:26:54;5.00;;;2.40;;
11663;SDS011;72375;59.302;18.204;2024-03-07T07:29:40;7.40;;;2.20;;
11663;SDS011;72375;59.302;18.204;2024-03-07T07:32:25;5.67;;;2.20;;
11663;SDS011;72375;59.302;18.204;2024-03-07T07:35:11;4.30;;;2.23;;
11663;SDS011;72375;59.302;18.204;2024-03-07T07:38:00;6.60;;;2.47;;
11663;SDS011;72375;59.302;18.204;2024-03-07T07:40:46;2.83;;;2.07;;
11663;SDS011;72375;59.302;18.204;2024-03-07T07:43:33;5.83;;;2.10;;
11663;SDS011;72375;59.302;18.204;2024-03-07T07:46:19;3.20;;;2.10;;
11663;SDS011;72375;59.302;18.204;2024-03-07T07:49:05;3.67;;;2.40;;
11663;SDS011;72375;59.302;18.204;2024-03-07T07:51:51;6.17;;;2.17;;
11663;SDS011;72375;59.302;18.204;2024-03-07T07:54:42;3.00;;;2.17;;
11663;SDS011;72375;59.302;18.204;2024-03-07T07:57:27;2.90;;;2.07;;
11663;SDS011;72375;59.302;18.204;2024-03-07T08:00:14;4.13;;;2.00;;
11663;SDS011;72375;59.302;18.204;2024-03-07T08:03:05;4.00;;;2.40;;
11663;SDS011;72375;59.302;18.204;2024-03-07T08:05:50;3.87;;;2.13;;
11663;SDS011;72375;59.302;18.204;2024-03-07T08:08:38;5.03;;;2.43;;
11663;SDS011;72375;59.302;18.204;2024-03-07T08:11:25;4.77;;;2.40;;
11663;SDS011;72375;59.302;18.204;2024-03-07T08:14:11;3.77;;;2.27;;
11663;SDS011;72375;59.302;18.204;2024-03-07T08:16:57;3.30;;;1.87;;
11663;SDS011;72375;59.302;18.204;2024-03-07T08:19:43;3.37;;;2.00;;
11663;SDS011;72375;59.302;18.204;2024-03-07T08:22:30;3.10;;;2.23;;
11663;SDS011;72375;59.302;18.204;2024-03-07T08:25:19;2.30;;;1.77;;
11663;SDS011;72375;59.302;18.204;2024-03-07T08:28:08;4.77;;;2.50;;
11663;SDS011;72375;59.302;18.204;2024-03-07T08:30:54;4.30;;;2.27;;
11663;SDS011;72375;59.302;18.204;2024-03-07T08:33:40;4.73;;;2.40;;
11663;SDS011;72375;59.302;18.204;2024-03-07T08:36:25;4.00;;;2.23;;
11663;SDS011;72375;59.302;18.204;2024-03-07T08:39:11;3.77;;;2.13;;
11663;SDS011;72375;59.302;18.204;2024-03-07T08:41:57;4.07;;;2.13;;
11663;SDS011;72375;59.302;18.204;2024-03-07T08:44:44;4.43;;;2.00;;
11663;SDS011;72375;59.302;18.204;2024-03-07T08:47:30;3.27;;;2.20;;
11663;SDS011;72375;59.302;18.204;2024-03-07T08:50:16;2.20;;;1.60;;
11663;SDS011;72375;59.302;18.204;2024-03-07T08:53:03;5.70;;;2.13;;
11663;SDS011;72375;59.302;18.204;2024-03-07T08:55:49;3.70;;;2.20;;
11663;SDS011;72375;59.302;18.204;2024-03-07T08:58:35;3.70;;;1.80;;
11663;SDS011;72375;59.302;18.204;2024-03-07T09:01:22;3.23;;;2.10;;
11663;SDS011;72375;59.302;18.204;2024-03-07T09:04:07;3.73;;;1.87;;
11663;SDS011;72375;59.302;18.204;2024-03-07T09:06:53;4.30;;;2.20;;
11663;SDS011;72375;59.302;18.204;2024-03-07T09:09:39;2.75;;;1.90;;
11663;SDS011;72375;59.302;18.204;2024-03-07T09:12:26;9.95;;;2.25;;
11663;SDS011;72375;59.302;18.204;2024-03-07T09:15:12;4.18;;;2.38;;
11663;SDS011;72375;59.302;18.204;2024-03-07T09:18:01;4.30;;;1.92;;
11663;SDS011;72375;59.302;18.204;2024-03-07T09:20:47;7.07;;;2.13;;
11663;SDS011;72375;59.302;18.204;2024-03-07T09:23:33;4.88;;;1.77;;
11663;SDS011;72375;59.302;18.204;2024-03-07T09:26:19;5.63;;;2.40;;
11663;SDS011;72375;59.302;18.204;2024-03-07T09:29:04;5.60;;;1.75;;
11663;SDS011;72375;59.302;18.204;2024-03-07T09:31:50;2.97;;;1.75;;
11663;SDS011;72375;59.302;18.204;2024-03-07T09:34:38;6.72;;;2.13;;
11663;SDS011;72375;59.302;18.204;2024-03-07T09:37:24;3.50;;;2.00;;
11663;SDS011;72375;59.302;18.204;2024-03-07T09:40:11;4.97;;;2.17;;
11663;SDS011;72375;59.302;18.204;2024-03-07T09:42:57;3.53;;;2.28;;
11663;SDS011;72375;59.302;18.204;2024-03-07T09:45:45;3.30;;;1.75;;
11663;SDS011;72375;59.302;18.204;2024-03-07T09:48:32;4.13;;;1.92;;
11663;SDS011;72375;59.302;18.204;2024-03-07T09:51:20;3.90;;;2.08;;
11663;SDS011;72375;59.302;18.204;2024-03-07T09:54:06;7.90;;;2.47;;
11663;SDS011;72375;59.302;18.204;2024-03-07T09:56:52;5.88;;;1.98;;
11663;SDS011;72375;59.302;18.204;2024-03-07T09:59:39;7.38;;;2.15;;
11663;SDS011;72375;59.302;18.204;2024-03-07T10:02:31;5.28;;;1.83;;
11663;SDS011;72375;59.302;18.204;2024-03-07T10:05:18;4.70;;;1.80;;
11663;SDS011;72375;59.302;18.204;2024-03-07T10:08:08;5.20;;;1.73;;
11663;SDS011;72375;59.302;18.204;2024-03-07T10:10:54;5.53;;;1.67;;
11663;SDS011;72375;59.302;18.204;2024-03-07T10:13:41;4.95;;;2.03;;
11663;SDS011;72375;59.302;18.204;2024-03-07T10:16:31;2.38;;;1.70;;
11663;SDS011;72375;59.302;18.204;2024-03-07T10:19:16;3.15;;;1.73;;
11663;SDS011;72375;59.302;18.204;2024-03-07T10:22:02;2.78;;;1.70;;
11663;SDS011;72375;59.302;18.204;2024-03-07T10:24:52;5.72;;;1.85;;
11663;SDS011;72375;59.302;18.204;2024-03-07T10:27:38;5.03;;;1.80;;
11663;SDS011;72375;59.302;18.204;2024-03-07T10:30:25;9.20;;;2.00;;
11663;SDS011;72375;59.302;18.204;2024-03-07T10:33:11;7.10;;;2.20;;
11663;SDS011;72375;59.302;18.204;2024-03-07T10:35:59;3.95;;;1.92;;
11663;SDS011;72375;59.302;18.204;2024-03-07T10:38:45;5.43;;;2.00;;
11663;SDS011;72375;59.302;18.204;2024-03-07T10:41:33;4.03;;;2.20;;
11663;SDS011;72375;59.302;18.204;2024-03-07T10:44:24;5.72;;;2.40;;
11663;SDS011;72375;59.302;18.204;2024-03-07T10:47:16;6.47;;;1.95;;
11663;SDS011;72375;59.302;18.204;2024-03-07T10:50:04;3.40;;;2.08;;
11663;SDS011;72375;59.302;18.204;2024-03-07T10:53:02;2.83;;;1.73;;
11663;SDS011;72375;59.302;18.204;2024-03-07T10:56:00;5.40;;;2.20;;
11663;SDS011;72375;59.302;18.204;2024-03-07T10:59:01;6.63;;;2.28;;
11663;SDS011;72375;59.302;18.204;2024-03-07T11:01:57;5.78;;;2.03;;
11663;SDS011;72375;59.302;18.204;2024-03-07T11:04:51;4.65;;;1.85;;
11663;SDS011;72375;59.302;18.204;2024-03-07T11:07:37;4.22;;;1.90;;
11663;SDS011;72375;59.302;18.204;2024-03-07T11:10:23;6.68;;;1.70;;
11663;SDS011;72375;59.302;18.204;2024-03-07T11:13:09;3.53;;;2.00;;
11663;SDS011;72375;59.302;18.204;2024-03-07T11:15:58;4.07;;;2.00;;
11663;SDS011;72375;59.302;18.204;2024-03-07T11:22:10;6.10;;;2.00;;
11663;SDS011;72375;59.302;18.204;2024-03-07T11:25:02;2.78;;;1.77;;
11663;SDS011;72375;59.302;18.204;2024-03-07T11:27:52;4.78;;;1.98;;
11663;SDS011;72375;59.302;18.204;2024-03-07T11:30:40;3.72;;;1.80;;
11663;SDS011;72375;59.302;18.204;2024-03-07T11:33:28;5.20;;;1.95;;
11663;SDS011;72375;59.302;18.204;2024-03-07T11:36:13;3.95;;;2.05;;
11663;SDS011;72375;59.302;18.204;2024-03-07T11:39:40;9.48;;;2.13;;
11663;SDS011;72375;59.302;18.204;2024-03-07T11:42:26;7.85;;;2.63;;
11663;SDS011;72375;59.302;18.204;2024-03-07T11:45:15;8.20;;;2.25;;
11663;SDS011;72375;59.302;18.204;2024-03-07T11:48:08;5.43;;;1.90;;
11663;SDS011;72375;59.302;18.204;2024-03-07T11:50:57;7.45;;;2.38;;
11663;SDS011;72375;59.302;18.204;2024-03-07T11:53:43;6.32;;;2.00;;
11663;SDS011;72375;59.302;18.204;2024-03-07T11:56:31;6.50;;;2.30;;
11663;SDS011;72375;59.302;18.204;2024-03-07T11:59:17;12.80;;;2.60;;
11663;SDS011;72375;59.302;18.204;2024-03-07T12:02:03;8.95;;;2.60;;
11663;SDS011;72375;59.302;18.204;2024-03-07T12:04:49;10.05;;;2.65;;
11663;SDS011;72375;59.302;18.204;2024-03-07T12:07:36;3.83;;;2.35;;
11663;SDS011;72375;59.302;18.204;2024-03-07T12:10:22;7.43;;;2.03;;
11663;SDS011;72375;59.302;18.204;2024-03-07T12:13:08;7.43;;;2.20;;
11663;SDS011;72375;59.302;18.204;2024-03-07T12:15:55;5.72;;;2.05;;
11663;SDS011;72375;59.302;18.204;2024-03-07T12:18:42;6.15;;;2.20;;
11663;SDS011;72375;59.302;18.204;2024-03-07T12:21:28;7.03;;;2.60;;
11663;SDS011;72375;59.302;18.204;2024-03-07T12:24:15;7.88;;;2.20;;
11663;SDS011;72375;59.302;18.204;2024-03-07T12:27:04;5.03;;;2.47;;
11663;SDS011;72375;59.302;18.204;2024-03-07T12:29:52;5.57;;;2.20;;
11663;SDS011;72375;59.302;18.204;2024-03-07T12:32:42;7.25;;;2.70;;
11663;SDS011;72375;59.302;18.204;2024-03-07T12:35:32;5.30;;;2.50;;
11663;SDS011;72375;59.302;18.204;2024-03-07T12:38:18;5.30;;;2.38;;
11663;SDS011;72375;59.302;18.204;2024-03-07T12:41:08;4.00;;;1.90;;
11663;SDS011;72375;59.302;18.204;2024-03-07T12:43:58;5.68;;;2.08;;
11663;SDS011;72375;59.302;18.204;2024-03-07T12:46:45;5.90;;;2.22;;
11663;SDS011;72375;59.302;18.204;2024-03-07T12:49:31;4.80;;;2.13;;
11663;SDS011;72375;59.302;18.204;2024-03-07T12:52:17;10.23;;;2.33;;
11663;SDS011;72375;59.302;18.204;2024-03-07T12:55:03;8.52;;;2.10;;
11663;SDS011;72375;59.302;18.204;2024-03-07T12:57:51;8.18;;;2.85;;
11663;SDS011;72375;59.302;18.204;2024-03-07T13:00:38;6.68;;;2.08;;
11663;SDS011;72375;59.302;18.204;2024-03-07T13:03:25;6.22;;;1.88;;
11663;SDS011;72375;59.302;18.204;2024-03-07T13:06:13;7.40;;;2.05;;
11663;SDS011;72375;59.302;18.204;2024-03-07T13:09:03;5.25;;;2.00;;
11663;SDS011;72375;59.302;18.204;2024-03-07T13:11:54;5.28;;;1.63;;
11663;SDS011;72375;59.302;18.204;2024-03-07T13:14:41;4.50;;;1.70;;
11663;SDS011;72375;59.302;18.204;2024-03-07T13:17:28;5.13;;;1.60;;
11663;SDS011;72375;59.302;18.204;2024-03-07T13:20:13;3.88;;;1.70;;
11663;SDS011;72375;59.302;18.204;2024-03-07T13:22:59;4.45;;;1.60;;
11663;SDS011;72375;59.302;18.204;2024-03-07T13:25:45;4.97;;;1.88;;
11663;SDS011;72375;59.302;18.204;2024-03-07T13:28:32;5.68;;;2.00;;
11663;SDS011;72375;59.302;18.204;2024-03-07T13:31:19;5.45;;;1.67;;
11663;SDS011;72375;59.302;18.204;2024-03-07T13:34:06;8.77;;;1.90;;
11663;SDS011;72375;59.302;18.204;2024-03-07T13:36:56;5.93;;;1.70;;
11663;SDS011;72375;59.302;18.204;2024-03-07T13:39:44;8.52;;;1.85;;
11663;SDS011;72375;59.302;18.204;2024-03-07T13:42:30;13.80;;;1.88;;
11663;SDS011;72375;59.302;18.204;2024-03-07T13:45:17;5.53;;;1.73;;
11663;SDS011;72375;59.302;18.204;2024-03-07T13:48:06;6.70;;;2.03;;
11663;SDS011;72375;59.302;18.204;2024-03-07T13:50:54;4.28;;;1.63;;
11663;SDS011;72375;59.302;18.204;2024-03-07T13:53:40;4.82;;;1.27;;
11663;SDS011;72375;59.302;18.204;2024-03-07T13:56:49;8.15;;;2.05;;
11663;SDS011;72375;59.302;18.204;2024-03-07T13:59:56;4.47;;;1.75;;
11663;SDS011;72375;59.302;18.204;2024-03-07T14:06:19;4.80;;;1.63;;
11663;SDS011;72375;59.302;18.204;2024-03-07T14:09:17;4.05;;;1.90;;
11663;SDS011;72375;59.302;18.204;2024-03-07T14:12:27;4.78;;;1.77;;
11663;SDS011;72375;59.302;18.204;2024-03-07T14:22:38;4.57;;;1.60;;
11663;SDS011;72375;59.302;18.204;2024-03-07T14:29:03;2.83;;;1.48;;
11663;SDS011;72375;59.302;18.204;2024-03-07T14:32:01;5.65;;;1.60;;
11663;SDS011;72375;59.302;18.204;2024-03-07T14:34:49;4.72;;;1.65;;
11663;SDS011;72375;59.302;18.204;2024-03-07T14:37:45;5.72;;;1.77;;
11663;SDS011;72375;59.302;18.204;2024-03-07T14:40:38;4.82;;;1.88;;
11663;SDS011;72375;59.302;18.204;2024-03-07T14:43:24;10.18;;;1.85;;
11663;SDS011;72375;59.302;18.204;2024-03-07T14:46:09;5.22;;;1.50;;
11663;SDS011;72375;59.302;18.204;2024-03-07T14:48:56;4.13;;;1.80;;
11663;SDS011;72375;59.302;18.204;2024-03-07T14:51:43;6.15;;;1.92;;
11663;SDS011;72375;59.302;18.204;2024-03-07T14:54:30;4.18;;;1.70;;
11663;SDS011;72375;59.302;18.204;2024-03-07T14:57:16;5.03;;;2.00;;
11663;SDS011;72375;59.302;18.204;2024-03-07T15:00:02;7.28;;;1.65;;
11663;SDS011;72375;59.302;18.204;2024-03-07T15:02:57;4.65;;;1.55;;
11663;SDS011;72375;59.302;18.204;2024-03-07T15:05:43;7.50;;;1.70;;
11663;SDS011;72375;59.302;18.204;2024-03-07T15:08:32;7.25;;;1.92;;
11663;SDS011;72375;59.302;18.204;2024-03-07T15:11:19;12.77;;;1.98;;
11663;SDS011;72375;59.302;18.204;2024-03-07T15:14:10;10.02;;;1.70;;
11663;SDS011;72375;59.302;18.204;2024-03-07T15:16:56;8.63;;;1.73;;
11663;SDS011;72375;59.302;18.204;2024-03-07T15:19:42;8.75;;;2.00;;
11663;SDS011;72375;59.302;18.204;2024-03-07T15:22:28;6.97;;;2.55;;
11663;SDS011;72375;59.302;18.204;2024-03-07T15:25:16;6.70;;;2.13;;
11663;SDS011;72375;59.302;18.204;2024-03-07T15:28:03;7.07;;;1.70;;
11663;SDS011;72375;59.302;18.204;2024-03-07T15:30:49;7.38;;;2.25;;
11663;SDS011;72375;59.302;18.204;2024-03-07T15:33:34;14.52;;;2.17;;
11663;SDS011;72375;59.302;18.204;2024-03-07T15:36:20;8.32;;;2.45;;
11663;SDS011;72375;59.302;18.204;2024-03-07T15:39:07;7.68;;;2.00;;
11663;SDS011;72375;59.302;18.204;2024-03-07T15:42:05;8.68;;;1.95;;
11663;SDS011;72375;59.302;18.204;2024-03-07T15:44:52;9.10;;;1.73;;
11663;SDS011;72375;59.302;18.204;2024-03-07T15:47:38;9.30;;;2.15;;
11663;SDS011;72375;59.302;18.204;2024-03-07T15:50:27;7.07;;;1.55;;
11663;SDS011;72375;59.302;18.204;2024-03-07T15:53:13;6.95;;;1.65;;
11663;SDS011;72375;59.302;18.204;2024-03-07T15:55:59;5.80;;;1.63;;
11663;SDS011;72375;59.302;18.204;2024-03-07T15:58:46;6.28;;;1.45;;
11663;SDS011;72375;59.302;18.204;2024-03-07T16:01:31;6.60;;;1.63;;
11663;SDS011;72375;59.302;18.204;2024-03-07T16:04:17;5.18;;;1.90;;
11663;SDS011;72375;59.302;18.204;2024-03-07T16:07:03;8.30;;;1.60;;
11663;SDS011;72375;59.302;18.204;2024-03-07T16:09:48;7.13;;;1.95;;
11663;SDS011;72375;59.302;18.204;2024-03-07T16:12:34;5.93;;;1.75;;
11663;SDS011;72375;59.302;18.204;2024-03-07T16:15:21;8.25;;;2.42;;
11663;SDS011;72375;59.302;18.204;2024-03-07T16:18:07;5.30;;;1.95;;
11663;SDS011;72375;59.302;18.204;2024-03-07T16:20:53;7.35;;;2.30;;
11663;SDS011;72375;59.302;18.204;2024-03-07T16:23:40;9.23;;;2.50;;
11663;SDS011;72375;59.302;18.204;2024-03-07T16:26:32;9.77;;;2.38;;
11663;SDS011;72375;59.302;18.204;2024-03-07T16:29:18;12.57;;;2.53;;
11663;SDS011;72375;59.302;18.204;2024-03-07T16:32:06;13.32;;;2.58;;
11663;SDS011;72375;59.302;18.204;2024-03-07T16:34:54;13.10;;;2.88;;
11663;SDS011;72375;59.302;18.204;2024-03-07T16:37:41;14.10;;;3.35;;
11663;SDS011;72375;59.302;18.204;2024-03-07T16:40:27;11.27;;;2.80;;
11663;SDS011;72375;59.302;18.204;2024-03-07T16:43:13;40.47;;;5.25;;
11663;SDS011;72375;59.302;18.204;2024-03-07T16:46:00;56.92;;;6.03;;
11663;SDS011;72375;59.302;18.204;2024-03-07T16:48:50;43.43;;;6.03;;